PWSweather.com
Personal Weather Stations
Station Observations
PALMY
Palmerston NorthNZ 4410

Palmerston NorthNZ 4410

Lat: -40.349104, Lon: 175.615094

Elevation: 75.4

Station Type: WeatherDuino Pro2

http://palmyweather.co.nz

Latest ConditionsUpdated 4:20:00 PM GMT+12:12 Monday, Jun 25, 2018
Currently Today's Max Today's Min Today's Average
Temperature 48.5°F9.2°C 52.3°F11.3°C 46.9°F8.3°C 48.9°F9.4°C
Dew Point 42.0°F5.6°C 48.5°F9.2°C 41.7°F5.4°C 46.1°F7.8°C
Winds 5.4 mph WNW8.7 kmh WNW 8.1 mph -13.0 kmh - - 5.3 mph 8.5 kmh
Wind Gusts 12.5 mph20.1 kmh 30.0 mph48.3 kmh - -
Humidity 78% 94% 77% 90%
Pressure 29.60 in1002.4 mb 29.71 in1006.1 mb 29.60 in1002.4 mb -
Precipitation - 0.12 in3.0 mm - -
Hour Temp Dew Point Humidity Winds Wind Gusts Pressure Precip Precip Rate Daily Precip Total
04:20 PM 48.5°F9.2°C 42.0°F5.6°C 78% 5.4 mph WNW8.7 kmh WNW 12.5 mph20.1 kmh 29.60 in1002.4 mb 0.00 in0.0 mm 0.00 in0.0 mm 0.12 in3.0 mm
04:15 PM 48.3°F9.1°C 41.8°F5.4°C 78% 5.4 mph NW8.7 kmh NW 10.3 mph16.6 kmh 29.60 in1002.4 mb 0.00 in0.0 mm 0.00 in0.0 mm 0.12 in3.0 mm
04:10 PM 48.5°F9.2°C 42.0°F5.6°C 78% 5.8 mph NW9.3 kmh NW 18.4 mph29.6 kmh 29.60 in1002.4 mb 0.00 in0.0 mm 0.00 in0.0 mm 0.12 in3.0 mm
04:05 PM 48.5°F9.2°C 41.7°F5.4°C 77% 6.3 mph NW10.1 kmh NW 18.4 mph29.6 kmh 29.60 in1002.4 mb 0.00 in0.0 mm 0.00 in0.0 mm 0.12 in3.0 mm
04:00 PM 48.7°F9.3°C 42.5°F5.8°C 79% 6.3 mph NW10.1 kmh NW 13.9 mph22.4 kmh 29.60 in1002.4 mb 0.00 in0.0 mm 0.00 in0.0 mm 0.12 in3.0 mm
03:55 PM 48.9°F9.4°C 43.0°F6.1°C 80% 6.3 mph WNW10.1 kmh WNW 13.4 mph21.6 kmh 29.60 in1002.4 mb 0.00 in0.0 mm 0.00 in0.0 mm 0.12 in3.0 mm
03:50 PM 48.9°F9.4°C 43.0°F6.1°C 80% 5.8 mph WNW9.3 kmh WNW 12.5 mph20.1 kmh 29.60 in1002.4 mb 0.00 in0.0 mm 0.00 in0.0 mm 0.12 in3.0 mm
03:45 PM 48.9°F9.4°C 43.4°F6.3°C 81% 5.4 mph NW8.7 kmh NW 11.6 mph18.7 kmh 29.60 in1002.4 mb 0.00 in0.0 mm 0.00 in0.0 mm 0.12 in3.0 mm
03:40 PM 48.7°F9.3°C 43.8°F6.6°C 83% 4.9 mph NW7.9 kmh NW 10.3 mph16.6 kmh 29.60 in1002.4 mb 0.00 in0.0 mm 0.00 in0.0 mm 0.12 in3.0 mm
03:35 PM 48.7°F9.3°C 44.4°F6.9°C 85% 5.4 mph NW8.7 kmh NW 10.8 mph17.4 kmh 29.61 in1002.7 mb 0.00 in0.0 mm 0.00 in0.0 mm 0.12 in3.0 mm
03:30 PM 48.5°F9.2°C 44.2°F6.8°C 85% 5.4 mph NW8.7 kmh NW 11.2 mph18.0 kmh 29.61 in1002.7 mb 0.00 in0.0 mm 0.00 in0.0 mm 0.12 in3.0 mm
03:25 PM 48.9°F9.4°C 44.3°F6.8°C 84% 4.9 mph NW7.9 kmh NW 11.2 mph18.0 kmh 29.61 in1002.7 mb 0.00 in0.0 mm 0.00 in0.0 mm 0.12 in3.0 mm
03:20 PM 49.1°F9.5°C 44.8°F7.1°C 85% 4.5 mph NW7.2 kmh NW 10.8 mph17.4 kmh 29.60 in1002.4 mb 0.00 in0.0 mm 0.00 in0.0 mm 0.12 in3.0 mm
03:15 PM 48.9°F9.4°C 44.6°F7.0°C 85% 4.5 mph NW7.2 kmh NW 10.3 mph16.6 kmh 29.61 in1002.7 mb 0.01 in0.3 mm 0.00 in0.0 mm 0.12 in3.0 mm
03:10 PM 48.9°F9.4°C 44.6°F7.0°C 85% 4.9 mph NW7.9 kmh NW 10.8 mph17.4 kmh 29.61 in1002.7 mb 0.01 in0.3 mm 0.00 in0.0 mm 0.12 in3.0 mm
03:05 PM 48.9°F9.4°C 44.6°F7.0°C 85% 5.8 mph NW9.3 kmh NW 11.6 mph18.7 kmh 29.61 in1002.7 mb 0.01 in0.3 mm 0.00 in0.0 mm 0.12 in3.0 mm
03:00 PM 48.9°F9.4°C 44.3°F6.8°C 84% 6.3 mph NW10.1 kmh NW 15.2 mph24.5 kmh 29.61 in1002.7 mb 0.01 in0.3 mm 0.00 in0.0 mm 0.12 in3.0 mm
02:55 PM 49.6°F9.8°C 44.7°F7.1°C 83% 6.7 mph NW10.8 kmh NW 15.2 mph24.5 kmh 29.61 in1002.7 mb 0.01 in0.3 mm 0.00 in0.0 mm 0.12 in3.0 mm
02:50 PM 49.6°F9.8°C 44.7°F7.1°C 83% 7.2 mph NW11.6 kmh NW 13.4 mph21.6 kmh 29.61 in1002.7 mb 0.01 in0.3 mm 0.00 in0.0 mm 0.12 in3.0 mm
02:45 PM 49.2°F9.6°C 44.9°F7.2°C 85% 7.2 mph NW11.6 kmh NW 17.5 mph28.2 kmh 29.61 in1002.7 mb 0.01 in0.3 mm 0.00 in0.0 mm 0.12 in3.0 mm
02:40 PM 48.5°F9.2°C 44.8°F7.1°C 87% 7.6 mph NW12.2 kmh NW 17.5 mph28.2 kmh 29.60 in1002.4 mb 0.01 in0.3 mm 0.00 in0.0 mm 0.12 in3.0 mm
02:35 PM 47.6°F8.7°C 44.3°F6.8°C 88% 8.1 mph NW13.0 kmh NW 19.3 mph31.1 kmh 29.60 in1002.4 mb 0.01 in0.3 mm 0.00 in0.0 mm 0.12 in3.0 mm
02:30 PM 47.4°F8.6°C 44.1°F6.7°C 88% 7.2 mph NW11.6 kmh NW 19.3 mph31.1 kmh 29.60 in1002.4 mb 0.01 in0.3 mm 0.00 in0.0 mm 0.12 in3.0 mm
02:25 PM 47.3°F8.5°C 44.0°F6.7°C 88% 7.6 mph NW12.2 kmh NW 22.0 mph35.4 kmh 29.60 in1002.4 mb 0.01 in0.3 mm 0.00 in0.0 mm 0.12 in3.0 mm
02:20 PM 47.3°F8.5°C 43.4°F6.3°C 86% 8.1 mph NW13.0 kmh NW 22.0 mph35.4 kmh 29.61 in1002.7 mb 0.01 in0.3 mm 0.12 in3.0 mm 0.12 in3.0 mm
02:15 PM 48.0°F8.9°C 43.7°F6.5°C 85% 7.6 mph NW12.2 kmh NW 17.9 mph28.8 kmh 29.61 in1002.7 mb 0.00 in0.0 mm 0.00 in0.0 mm 0.11 in2.8 mm
02:10 PM 48.3°F9.1°C 43.7°F6.5°C 84% 8.1 mph NNW13.0 kmh NNW 17.9 mph28.8 kmh 29.60 in1002.4 mb 0.00 in0.0 mm 0.00 in0.0 mm 0.11 in2.8 mm
02:05 PM 49.1°F9.5°C 43.9°F6.6°C 82% 7.6 mph NW12.2 kmh NW 17.9 mph28.8 kmh 29.60 in1002.4 mb 0.00 in0.0 mm 0.00 in0.0 mm 0.11 in2.8 mm
02:00 PM 49.2°F9.6°C 44.0°F6.7°C 82% 7.6 mph NW12.2 kmh NW 16.6 mph26.7 kmh 29.60 in1002.4 mb 0.00 in0.0 mm 0.00 in0.0 mm 0.11 in2.8 mm
01:55 PM 49.2°F9.6°C 44.0°F6.7°C 82% 6.7 mph NW10.8 kmh NW 15.7 mph25.3 kmh 29.61 in1002.7 mb 0.00 in0.0 mm 0.00 in0.0 mm 0.11 in2.8 mm
01:50 PM 49.8°F9.9°C 44.6°F7.0°C 82% 6.7 mph NW10.8 kmh NW 15.7 mph25.3 kmh 29.60 in1002.4 mb 0.00 in0.0 mm 0.00 in0.0 mm 0.11 in2.8 mm
01:45 PM 50.1°F10.1°C 44.9°F7.2°C 82% 7.2 mph NW11.6 kmh NW 16.6 mph26.7 kmh 29.61 in1002.7 mb 0.00 in0.0 mm 0.00 in0.0 mm 0.11 in2.8 mm
01:40 PM 50.1°F10.1°C 44.5°F6.9°C 81% 7.2 mph NW11.6 kmh NW 18.8 mph30.3 kmh 29.61 in1002.7 mb 0.00 in0.0 mm 0.00 in0.0 mm 0.11 in2.8 mm
01:35 PM 50.5°F10.3°C 44.9°F7.2°C 81% 7.6 mph NW12.2 kmh NW 18.8 mph30.3 kmh 29.61 in1002.7 mb 0.00 in0.0 mm 0.00 in0.0 mm 0.11 in2.8 mm
01:30 PM 50.7°F10.4°C 44.5°F6.9°C 79% 7.6 mph NW12.2 kmh NW 17.9 mph28.8 kmh 29.61 in1002.7 mb 0.00 in0.0 mm 0.00 in0.0 mm 0.11 in2.8 mm
01:25 PM 51.6°F10.9°C 45.3°F7.4°C 79% 7.2 mph NW11.6 kmh NW 20.6 mph33.2 kmh 29.60 in1002.4 mb 0.00 in0.0 mm 0.00 in0.0 mm 0.11 in2.8 mm
01:20 PM 52.3°F11.3°C 46.0°F7.8°C 79% 7.6 mph NW12.2 kmh NW 20.6 mph33.2 kmh 29.60 in1002.4 mb 0.00 in0.0 mm 0.00 in0.0 mm 0.11 in2.8 mm
01:15 PM 52.3°F11.3°C 45.7°F7.6°C 78% 7.6 mph NW12.2 kmh NW 19.7 mph31.7 kmh 29.61 in1002.7 mb 0.00 in0.0 mm 0.00 in0.0 mm 0.11 in2.8 mm
01:10 PM 51.8°F11.0°C 46.5°F8.1°C 82% 7.2 mph NW11.6 kmh NW 19.3 mph31.1 kmh 29.61 in1002.7 mb 0.00 in0.0 mm 0.00 in0.0 mm 0.11 in2.8 mm
01:05 PM 50.9°F10.5°C 46.3°F7.9°C 84% 7.6 mph NW12.2 kmh NW 18.8 mph30.3 kmh 29.61 in1002.7 mb 0.00 in0.0 mm 0.00 in0.0 mm 0.11 in2.8 mm
01:00 PM 50.1°F10.1°C 45.5°F7.5°C 84% 7.6 mph NW12.2 kmh NW 18.8 mph30.3 kmh 29.61 in1002.7 mb 0.00 in0.0 mm 0.00 in0.0 mm 0.11 in2.8 mm
12:55 PM 50.1°F10.1°C 45.8°F7.7°C 85% 6.7 mph NW10.8 kmh NW 14.3 mph23.0 kmh 29.62 in1003.0 mb 0.00 in0.0 mm 0.00 in0.0 mm 0.11 in2.8 mm
12:50 PM 50.0°F10.0°C 45.7°F7.6°C 85% 6.3 mph NW10.1 kmh NW 18.4 mph29.6 kmh 29.61 in1002.7 mb 0.00 in0.0 mm 0.00 in0.0 mm 0.11 in2.8 mm
12:45 PM 49.6°F9.8°C 45.6°F7.6°C 86% 5.8 mph NW9.3 kmh NW 18.4 mph29.6 kmh 29.62 in1003.0 mb 0.00 in0.0 mm 0.00 in0.0 mm 0.11 in2.8 mm
12:40 PM 49.4°F9.7°C 45.7°F7.6°C 87% 6.7 mph NW10.8 kmh NW 13.0 mph20.9 kmh 29.62 in1003.0 mb 0.00 in0.0 mm 0.00 in0.0 mm 0.11 in2.8 mm
12:35 PM 49.4°F9.7°C 45.7°F7.6°C 87% 6.3 mph NW10.1 kmh NW 13.0 mph20.9 kmh 29.62 in1003.0 mb 0.00 in0.0 mm 0.00 in0.0 mm 0.11 in2.8 mm
12:30 PM 50.0°F10.0°C 46.3°F7.9°C 87% 5.8 mph NW9.3 kmh NW 13.4 mph21.6 kmh 29.62 in1003.0 mb 0.00 in0.0 mm 0.00 in0.0 mm 0.11 in2.8 mm
12:25 PM 50.1°F10.1°C 46.4°F8.0°C 87% 6.3 mph NW10.1 kmh NW 15.2 mph24.5 kmh 29.62 in1003.0 mb 0.00 in0.0 mm 0.00 in0.0 mm 0.11 in2.8 mm
12:20 PM 50.1°F10.1°C 46.4°F8.0°C 87% 6.7 mph NNW10.8 kmh NNW 15.2 mph24.5 kmh 29.63 in1003.4 mb 0.00 in0.0 mm 0.00 in0.0 mm 0.11 in2.8 mm
12:15 PM 50.3°F10.2°C 46.3°F7.9°C 86% 6.7 mph NW10.8 kmh NW 13.9 mph22.4 kmh 29.63 in1003.4 mb 0.00 in0.0 mm 0.00 in0.0 mm 0.11 in2.8 mm
12:10 PM 50.7°F10.4°C 46.4°F8.0°C 85% 5.8 mph NW9.3 kmh NW 13.4 mph21.6 kmh 29.63 in1003.4 mb 0.00 in0.0 mm 0.00 in0.0 mm 0.11 in2.8 mm
12:05 PM 51.2°F10.7°C 46.9°F8.3°C 85% 4.9 mph NW7.9 kmh NW 12.5 mph20.1 kmh 29.63 in1003.4 mb 0.00 in0.0 mm 0.00 in0.0 mm 0.11 in2.8 mm
12:00 PM 51.2°F10.7°C 46.9°F8.3°C 85% 5.4 mph NW8.7 kmh NW 12.5 mph20.1 kmh 29.64 in1003.7 mb 0.00 in0.0 mm 0.00 in0.0 mm 0.11 in2.8 mm
11:55 AM 51.0°F10.6°C 47.0°F8.3°C 86% 5.4 mph NW8.7 kmh NW 12.1 mph19.5 kmh 29.63 in1003.4 mb 0.00 in0.0 mm 0.00 in0.0 mm 0.11 in2.8 mm
11:50 AM 50.9°F10.5°C 47.2°F8.4°C 87% 5.4 mph NW8.7 kmh NW 13.9 mph22.4 kmh 29.64 in1003.7 mb 0.00 in0.0 mm 0.00 in0.0 mm 0.11 in2.8 mm
11:45 AM 50.5°F10.3°C 46.8°F8.2°C 87% 5.4 mph NW8.7 kmh NW 16.6 mph26.7 kmh 29.64 in1003.7 mb 0.00 in0.0 mm 0.00 in0.0 mm 0.11 in2.8 mm
11:40 AM 51.0°F10.6°C 47.0°F8.3°C 86% 5.4 mph NW8.7 kmh NW 16.6 mph26.7 kmh 29.64 in1003.7 mb 0.00 in0.0 mm 0.00 in0.0 mm 0.11 in2.8 mm
11:35 AM 50.5°F10.3°C 46.8°F8.2°C 87% 4.9 mph NW7.9 kmh NW 15.2 mph24.5 kmh 29.65 in1004.1 mb 0.00 in0.0 mm 0.00 in0.0 mm 0.11 in2.8 mm
11:30 AM 50.3°F10.2°C 46.9°F8.3°C 88% 4.9 mph NW7.9 kmh NW 12.5 mph20.1 kmh 29.65 in1004.1 mb 0.00 in0.0 mm 0.00 in0.0 mm 0.11 in2.8 mm
11:25 AM 50.3°F10.2°C 47.2°F8.4°C 89% 4.9 mph NW7.9 kmh NW 10.8 mph17.4 kmh 29.65 in1004.1 mb 0.00 in0.0 mm 0.00 in0.0 mm 0.11 in2.8 mm
11:20 AM 50.0°F10.0°C 46.9°F8.3°C 89% 4.9 mph NW7.9 kmh NW 11.2 mph18.0 kmh 29.65 in1004.1 mb 0.00 in0.0 mm 0.00 in0.0 mm 0.11 in2.8 mm
11:15 AM 49.6°F9.8°C 46.8°F8.2°C 90% 4.5 mph NW7.2 kmh NW 11.2 mph18.0 kmh 29.64 in1003.7 mb 0.00 in0.0 mm 0.00 in0.0 mm 0.11 in2.8 mm
11:10 AM 48.9°F9.4°C 46.4°F8.0°C 91% 4.5 mph NW7.2 kmh NW 10.8 mph17.4 kmh 29.65 in1004.1 mb 0.00 in0.0 mm 0.00 in0.0 mm 0.11 in2.8 mm
11:05 AM 48.7°F9.3°C 46.2°F7.9°C 91% 5.8 mph NW9.3 kmh NW 15.2 mph24.5 kmh 29.64 in1003.7 mb 0.00 in0.0 mm 0.00 in0.0 mm 0.11 in2.8 mm
11:00 AM 48.3°F9.1°C 45.8°F7.7°C 91% 6.7 mph NW10.8 kmh NW 16.1 mph25.9 kmh 29.64 in1003.7 mb 0.00 in0.0 mm 0.00 in0.0 mm 0.11 in2.8 mm
10:55 AM 48.7°F9.3°C 46.2°F7.9°C 91% 6.3 mph NNW10.1 kmh NNW 16.1 mph25.9 kmh 29.65 in1004.1 mb 0.00 in0.0 mm 0.00 in0.0 mm 0.11 in2.8 mm
10:50 AM 48.7°F9.3°C 45.9°F7.7°C 90% 5.4 mph NNW8.7 kmh NNW 13.4 mph21.6 kmh 29.65 in1004.1 mb 0.00 in0.0 mm 0.00 in0.0 mm 0.11 in2.8 mm
10:45 AM 49.1°F9.5°C 45.7°F7.6°C 88% 4.9 mph NNW7.9 kmh NNW 11.6 mph18.7 kmh 29.65 in1004.1 mb 0.00 in0.0 mm 0.00 in0.0 mm 0.11 in2.8 mm
10:40 AM 49.2°F9.6°C 46.1°F7.8°C 89% 5.8 mph NW9.3 kmh NW 13.0 mph20.9 kmh 29.65 in1004.1 mb 0.01 in0.3 mm 0.00 in0.0 mm 0.11 in2.8 mm
10:35 AM 48.5°F9.2°C 45.4°F7.4°C 89% 5.4 mph NW8.7 kmh NW 13.0 mph20.9 kmh 29.65 in1004.1 mb 0.02 in0.5 mm 0.00 in0.0 mm 0.11 in2.8 mm
10:30 AM 48.5°F9.2°C 45.4°F7.4°C 89% 4.9 mph NW7.9 kmh NW 16.1 mph25.9 kmh 29.65 in1004.1 mb 0.02 in0.5 mm 0.00 in0.0 mm 0.11 in2.8 mm
10:25 AM 48.7°F9.3°C 45.9°F7.7°C 90% 5.4 mph NW8.7 kmh NW 16.1 mph25.9 kmh 29.65 in1004.1 mb 0.02 in0.5 mm 0.00 in0.0 mm 0.11 in2.8 mm
10:20 AM 48.5°F9.2°C 45.7°F7.6°C 90% 6.3 mph NW10.1 kmh NW 16.1 mph25.9 kmh 29.66 in1004.4 mb 0.02 in0.5 mm 0.00 in0.0 mm 0.11 in2.8 mm
10:15 AM 48.2°F9.0°C 45.4°F7.4°C 90% 7.6 mph NW12.2 kmh NW 20.6 mph33.2 kmh 29.66 in1004.4 mb 0.02 in0.5 mm 0.00 in0.0 mm 0.11 in2.8 mm
10:10 AM 48.0°F8.9°C 45.5°F7.5°C 91% 7.2 mph NW11.6 kmh NW 20.6 mph33.2 kmh 29.66 in1004.4 mb 0.02 in0.5 mm 0.00 in0.0 mm 0.11 in2.8 mm
10:05 AM 47.8°F8.8°C 45.6°F7.6°C 92% 6.3 mph NW10.1 kmh NW 14.3 mph23.0 kmh 29.65 in1004.1 mb 0.02 in0.5 mm 0.00 in0.0 mm 0.11 in2.8 mm
10:00 AM 47.8°F8.8°C 45.6°F7.6°C 92% 6.7 mph NW10.8 kmh NW 13.9 mph22.4 kmh 29.66 in1004.4 mb 0.02 in0.5 mm 0.00 in0.0 mm 0.11 in2.8 mm
09:55 AM 47.8°F8.8°C 45.6°F7.6°C 92% 7.2 mph NW11.6 kmh NW 17.5 mph28.2 kmh 29.65 in1004.1 mb 0.02 in0.5 mm 0.00 in0.0 mm 0.11 in2.8 mm
09:50 AM 47.8°F8.8°C 45.6°F7.6°C 92% 7.2 mph NW11.6 kmh NW 19.3 mph31.1 kmh 29.65 in1004.1 mb 0.02 in0.5 mm 0.00 in0.0 mm 0.11 in2.8 mm
09:45 AM 47.6°F8.7°C 45.4°F7.4°C 92% 5.8 mph NW9.3 kmh NW 19.3 mph31.1 kmh 29.65 in1004.1 mb 0.02 in0.5 mm 0.12 in3.0 mm 0.11 in2.8 mm
09:40 AM 47.6°F8.7°C 45.1°F7.3°C 91% 5.4 mph NW8.7 kmh NW 13.9 mph22.4 kmh 29.66 in1004.4 mb 0.01 in0.3 mm 0.12 in3.0 mm 0.10 in2.5 mm
09:35 AM 47.6°F8.7°C 45.1°F7.3°C 91% 5.4 mph NW8.7 kmh NW 10.8 mph17.4 kmh 29.65 in1004.1 mb 0.00 in0.0 mm 0.00 in0.0 mm 0.09 in2.3 mm
09:30 AM 47.8°F8.8°C 45.0°F7.2°C 90% 6.3 mph NW10.1 kmh NW 15.7 mph25.3 kmh 29.65 in1004.1 mb 0.00 in0.0 mm 0.00 in0.0 mm 0.09 in2.3 mm
09:25 AM 47.8°F8.8°C 45.0°F7.2°C 90% 6.3 mph NW10.1 kmh NW 15.7 mph25.3 kmh 29.65 in1004.1 mb 0.00 in0.0 mm 0.00 in0.0 mm 0.09 in2.3 mm
09:20 AM 47.8°F8.8°C 45.3°F7.4°C 91% 4.5 mph NW7.2 kmh NW 9.4 mph15.1 kmh 29.65 in1004.1 mb 0.00 in0.0 mm 0.00 in0.0 mm 0.09 in2.3 mm
09:15 AM 47.6°F8.7°C 45.1°F7.3°C 91% 4.0 mph NW6.4 kmh NW 9.0 mph14.5 kmh 29.65 in1004.1 mb 0.00 in0.0 mm 0.00 in0.0 mm 0.09 in2.3 mm
09:10 AM 47.6°F8.7°C 45.4°F7.4°C 92% 4.0 mph NNW6.4 kmh NNW 10.8 mph17.4 kmh 29.65 in1004.1 mb 0.00 in0.0 mm 0.00 in0.0 mm 0.09 in2.3 mm
09:05 AM 47.6°F8.7°C 45.4°F7.4°C 92% 4.0 mph NNW6.4 kmh NNW 10.8 mph17.4 kmh 29.65 in1004.1 mb 0.00 in0.0 mm 0.00 in0.0 mm 0.09 in2.3 mm
09:00 AM 47.4°F8.6°C 45.2°F7.3°C 92% 4.0 mph NNW6.4 kmh NNW 9.4 mph15.1 kmh 29.64 in1003.7 mb 0.01 in0.3 mm 0.00 in0.0 mm 0.09 in2.3 mm
08:55 AM 47.4°F8.6°C 45.2°F7.3°C 92% 4.9 mph NW7.9 kmh NW 9.9 mph15.9 kmh 29.64 in1003.7 mb 0.01 in0.3 mm 0.00 in0.0 mm 0.09 in2.3 mm
08:50 AM 47.4°F8.6°C 45.5°F7.5°C 93% 5.4 mph NW8.7 kmh NW 12.1 mph19.5 kmh 29.64 in1003.7 mb 0.01 in0.3 mm 0.00 in0.0 mm 0.09 in2.3 mm
08:45 AM 47.4°F8.6°C 45.5°F7.5°C 93% 4.9 mph NW7.9 kmh NW 12.1 mph19.5 kmh 29.64 in1003.7 mb 0.02 in0.5 mm 0.00 in0.0 mm 0.09 in2.3 mm
08:40 AM 47.6°F8.7°C 46.0°F7.8°C 94% 4.9 mph NW7.9 kmh NW 11.6 mph18.7 kmh 29.64 in1003.7 mb 0.02 in0.5 mm 0.00 in0.0 mm 0.09 in2.3 mm
08:35 AM 47.6°F8.7°C 46.0°F7.8°C 94% 5.8 mph NW9.3 kmh NW 11.6 mph18.7 kmh 29.64 in1003.7 mb 0.02 in0.5 mm 0.00 in0.0 mm 0.09 in2.3 mm
08:30 AM 47.4°F8.6°C 45.8°F7.7°C 94% 5.4 mph NW8.7 kmh NW 14.3 mph23.0 kmh 29.64 in1003.7 mb 0.02 in0.5 mm 0.00 in0.0 mm 0.09 in2.3 mm
08:25 AM 47.3°F8.5°C 45.7°F7.6°C 94% 5.4 mph NW8.7 kmh NW 14.3 mph23.0 kmh 29.64 in1003.7 mb 0.03 in0.8 mm 0.00 in0.0 mm 0.09 in2.3 mm
08:20 AM 47.1°F8.4°C 45.5°F7.5°C 94% 6.3 mph NW10.1 kmh NW 12.5 mph20.1 kmh 29.65 in1004.1 mb 0.03 in0.8 mm 0.00 in0.0 mm 0.09 in2.3 mm
08:15 AM 47.1°F8.4°C 45.5°F7.5°C 94% 6.3 mph NW10.1 kmh NW 12.5 mph20.1 kmh 29.65 in1004.1 mb 0.03 in0.8 mm 0.00 in0.0 mm 0.09 in2.3 mm
08:10 AM 46.9°F8.3°C 45.3°F7.4°C 94% 6.3 mph NW10.1 kmh NW 21.5 mph34.6 kmh 29.65 in1004.1 mb 0.03 in0.8 mm 0.00 in0.0 mm 0.09 in2.3 mm
08:05 AM 47.1°F8.4°C 45.5°F7.5°C 94% 5.8 mph NW9.3 kmh NW 21.5 mph34.6 kmh 29.65 in1004.1 mb 0.05 in1.3 mm 0.00 in0.0 mm 0.09 in2.3 mm
08:00 AM 47.3°F8.5°C 45.7°F7.6°C 94% 5.4 mph NW8.7 kmh NW 11.2 mph18.0 kmh 29.65 in1004.1 mb 0.05 in1.3 mm 0.00 in0.0 mm 0.09 in2.3 mm
07:55 AM 47.3°F8.5°C 45.7°F7.6°C 94% 4.9 mph NW7.9 kmh NW 9.4 mph15.1 kmh 29.65 in1004.1 mb 0.05 in1.3 mm 0.00 in0.0 mm 0.09 in2.3 mm
07:50 AM 47.3°F8.5°C 45.7°F7.6°C 94% 4.5 mph NW7.2 kmh NW 9.4 mph15.1 kmh 29.65 in1004.1 mb 0.06 in1.5 mm 0.12 in3.0 mm 0.09 in2.3 mm
07:45 AM 47.4°F8.6°C 45.8°F7.7°C 94% 5.4 mph NW8.7 kmh NW 14.3 mph23.0 kmh 29.65 in1004.1 mb 0.05 in1.3 mm 0.00 in0.0 mm 0.08 in2.0 mm
07:40 AM 47.4°F8.6°C 45.8°F7.7°C 94% 5.8 mph W9.3 kmh W 14.3 mph23.0 kmh 29.65 in1004.1 mb 0.06 in1.5 mm 0.00 in0.0 mm 0.08 in2.0 mm
07:35 AM 47.4°F8.6°C 45.5°F7.5°C 93% 4.5 mph W7.2 kmh W 10.3 mph16.6 kmh 29.65 in1004.1 mb 0.06 in1.5 mm 0.00 in0.0 mm 0.08 in2.0 mm
07:30 AM 47.4°F8.6°C 45.5°F7.5°C 93% 3.6 mph W5.8 kmh W 9.4 mph15.1 kmh 29.65 in1004.1 mb 0.06 in1.5 mm 0.12 in3.0 mm 0.07 in1.8 mm
07:25 AM 47.6°F8.7°C 45.7°F7.6°C 93% 4.0 mph WNW6.4 kmh WNW 9.9 mph15.9 kmh 29.65 in1004.1 mb 0.05 in1.3 mm 0.00 in0.0 mm 0.06 in1.5 mm
07:20 AM 47.8°F8.8°C 45.9°F7.7°C 93% 4.5 mph W7.2 kmh W 9.9 mph15.9 kmh 29.65 in1004.1 mb 0.05 in1.3 mm 0.00 in0.0 mm 0.06 in1.5 mm
07:15 AM 48.0°F8.9°C 45.8°F7.7°C 92% 4.0 mph W6.4 kmh W 10.8 mph17.4 kmh 29.65 in1004.1 mb 0.05 in1.3 mm 0.00 in0.0 mm 0.06 in1.5 mm
07:10 AM 48.0°F8.9°C 45.8°F7.7°C 92% 3.6 mph W5.8 kmh W 10.8 mph17.4 kmh 29.65 in1004.1 mb 0.05 in1.3 mm 0.24 in6.1 mm 0.06 in1.5 mm
07:05 AM 48.0°F8.9°C 45.8°F7.7°C 92% 4.5 mph WNW7.2 kmh WNW 10.8 mph17.4 kmh 29.64 in1003.7 mb 0.03 in0.8 mm 0.12 in3.0 mm 0.05 in1.3 mm
07:00 AM 48.0°F8.9°C 45.8°F7.7°C 92% 5.4 mph NW8.7 kmh NW 14.8 mph23.8 kmh 29.64 in1003.7 mb 0.02 in0.5 mm 0.00 in0.0 mm 0.04 in1.0 mm
06:55 AM 48.0°F8.9°C 45.8°F7.7°C 92% 5.4 mph NW8.7 kmh NW 14.8 mph23.8 kmh 29.64 in1003.7 mb 0.02 in0.5 mm 0.00 in0.0 mm 0.04 in1.0 mm
06:50 AM 47.8°F8.8°C 45.9°F7.7°C 93% 4.0 mph NW6.4 kmh NW 12.1 mph19.5 kmh 29.64 in1003.7 mb 0.02 in0.5 mm 0.00 in0.0 mm 0.03 in0.8 mm
06:45 AM 47.8°F8.8°C 45.6°F7.6°C 92% 3.6 mph WNW5.8 kmh WNW 7.6 mph12.2 kmh 29.64 in1003.7 mb 0.02 in0.5 mm 0.24 in6.1 mm 0.03 in0.8 mm
06:40 AM 47.8°F8.8°C 45.9°F7.7°C 93% 4.0 mph NNW6.4 kmh NNW 8.1 mph13.0 kmh 29.64 in1003.7 mb 0.00 in0.0 mm 0.00 in0.0 mm 0.02 in0.5 mm
06:35 AM 47.8°F8.8°C 45.9°F7.7°C 93% 4.5 mph N7.2 kmh N 9.0 mph14.5 kmh 29.63 in1003.4 mb 0.00 in0.0 mm 0.00 in0.0 mm 0.02 in0.5 mm
06:30 AM 47.6°F8.7°C 45.7°F7.6°C 93% 3.6 mph N5.8 kmh N 9.0 mph14.5 kmh 29.63 in1003.4 mb 0.00 in0.0 mm 0.00 in0.0 mm 0.02 in0.5 mm
06:25 AM 47.4°F8.6°C 45.8°F7.7°C 94% 3.1 mph N5.0 kmh N 7.2 mph11.6 kmh 29.62 in1003.0 mb 0.00 in0.0 mm 0.00 in0.0 mm 0.02 in0.5 mm
06:20 AM 47.4°F8.6°C 45.8°F7.7°C 94% 3.1 mph N5.0 kmh N 7.2 mph11.6 kmh 29.62 in1003.0 mb 0.00 in0.0 mm 0.00 in0.0 mm 0.02 in0.5 mm
06:15 AM 47.4°F8.6°C 45.8°F7.7°C 94% 2.7 mph NNW4.3 kmh NNW 6.7 mph10.8 kmh 29.63 in1003.4 mb 0.00 in0.0 mm 0.00 in0.0 mm 0.02 in0.5 mm
06:10 AM 47.4°F8.6°C 45.8°F7.7°C 94% 2.7 mph NNW4.3 kmh NNW 6.7 mph10.8 kmh 29.63 in1003.4 mb 0.00 in0.0 mm 0.00 in0.0 mm 0.02 in0.5 mm
06:05 AM 47.4°F8.6°C 45.8°F7.7°C 94% 2.7 mph NNW4.3 kmh NNW 6.7 mph10.8 kmh 29.64 in1003.7 mb 0.00 in0.0 mm 0.00 in0.0 mm 0.02 in0.5 mm
06:00 AM 47.4°F8.6°C 45.8°F7.7°C 94% 3.1 mph NW5.0 kmh NW 6.7 mph10.8 kmh 29.64 in1003.7 mb 0.00 in0.0 mm 0.00 in0.0 mm 0.02 in0.5 mm
05:55 AM 47.6°F8.7°C 46.0°F7.8°C 94% 3.1 mph NNW5.0 kmh NNW 6.3 mph10.1 kmh 29.64 in1003.7 mb 0.00 in0.0 mm 0.00 in0.0 mm 0.02 in0.5 mm
05:50 AM 47.8°F8.8°C 46.2°F7.9°C 94% 3.1 mph NNW5.0 kmh NNW 6.3 mph10.1 kmh 29.64 in1003.7 mb 0.00 in0.0 mm 0.00 in0.0 mm 0.02 in0.5 mm
05:45 AM 48.0°F8.9°C 46.4°F8.0°C 94% 3.1 mph NNW5.0 kmh NNW 5.8 mph9.3 kmh 29.64 in1003.7 mb 0.00 in0.0 mm 0.00 in0.0 mm 0.02 in0.5 mm
05:40 AM 48.3°F9.1°C 46.7°F8.2°C 94% 3.1 mph NNW5.0 kmh NNW 6.3 mph10.1 kmh 29.64 in1003.7 mb 0.00 in0.0 mm 0.00 in0.0 mm 0.02 in0.5 mm
05:35 AM 48.3°F9.1°C 46.7°F8.2°C 94% 3.6 mph NW5.8 kmh NW 7.2 mph11.6 kmh 29.64 in1003.7 mb 0.00 in0.0 mm 0.00 in0.0 mm 0.02 in0.5 mm
05:30 AM 48.3°F9.1°C 46.7°F8.2°C 94% 3.6 mph NW5.8 kmh NW 8.1 mph13.0 kmh 29.64 in1003.7 mb 0.00 in0.0 mm 0.00 in0.0 mm 0.02 in0.5 mm
05:25 AM 48.3°F9.1°C 46.7°F8.2°C 94% 3.6 mph NW5.8 kmh NW 8.1 mph13.0 kmh 29.65 in1004.1 mb 0.00 in0.0 mm 0.00 in0.0 mm 0.02 in0.5 mm
05:20 AM 48.3°F9.1°C 46.7°F8.2°C 94% 3.6 mph NW5.8 kmh NW 7.6 mph12.2 kmh 29.65 in1004.1 mb 0.00 in0.0 mm 0.00 in0.0 mm 0.02 in0.5 mm
05:15 AM 48.5°F9.2°C 46.9°F8.3°C 94% 3.6 mph NW5.8 kmh NW 7.6 mph12.2 kmh 29.65 in1004.1 mb 0.00 in0.0 mm 0.00 in0.0 mm 0.02 in0.5 mm
05:10 AM 48.5°F9.2°C 46.9°F8.3°C 94% 4.0 mph NW6.4 kmh NW 8.1 mph13.0 kmh 29.65 in1004.1 mb 0.00 in0.0 mm 0.00 in0.0 mm 0.02 in0.5 mm
05:05 AM 48.5°F9.2°C 46.9°F8.3°C 94% 4.0 mph NW6.4 kmh NW 8.1 mph13.0 kmh 29.65 in1004.1 mb 0.00 in0.0 mm 0.00 in0.0 mm 0.02 in0.5 mm
05:00 AM 48.5°F9.2°C 46.9°F8.3°C 94% 4.0 mph NW6.4 kmh NW 8.5 mph13.7 kmh 29.65 in1004.1 mb 0.00 in0.0 mm 0.00 in0.0 mm 0.02 in0.5 mm
04:55 AM 48.7°F9.3°C 47.1°F8.4°C 94% 3.6 mph NW5.8 kmh NW 8.5 mph13.7 kmh 29.65 in1004.1 mb 0.00 in0.0 mm 0.00 in0.0 mm 0.02 in0.5 mm
04:50 AM 48.9°F9.4°C 47.3°F8.5°C 94% 3.6 mph NW5.8 kmh NW 8.5 mph13.7 kmh 29.65 in1004.1 mb 0.00 in0.0 mm 0.00 in0.0 mm 0.02 in0.5 mm
04:45 AM 48.9°F9.4°C 47.3°F8.5°C 94% 4.0 mph NNW6.4 kmh NNW 9.0 mph14.5 kmh 29.65 in1004.1 mb 0.01 in0.3 mm 0.00 in0.0 mm 0.02 in0.5 mm
04:40 AM 48.9°F9.4°C 47.3°F8.5°C 94% 5.4 mph NNW8.7 kmh NNW 11.6 mph18.7 kmh 29.65 in1004.1 mb 0.02 in0.5 mm 0.00 in0.0 mm 0.02 in0.5 mm
04:35 AM 48.9°F9.4°C 47.3°F8.5°C 94% 6.3 mph NNW10.1 kmh NNW 11.6 mph18.7 kmh 29.66 in1004.4 mb 0.02 in0.5 mm 0.00 in0.0 mm 0.02 in0.5 mm
04:30 AM 48.9°F9.4°C 47.3°F8.5°C 94% 5.4 mph NNW8.7 kmh NNW 14.8 mph23.8 kmh 29.66 in1004.4 mb 0.02 in0.5 mm 0.00 in0.0 mm 0.02 in0.5 mm
04:25 AM 48.9°F9.4°C 47.3°F8.5°C 94% 4.9 mph NNW7.9 kmh NNW 14.8 mph23.8 kmh 29.66 in1004.4 mb 0.02 in0.5 mm 0.00 in0.0 mm 0.02 in0.5 mm
04:20 AM 49.1°F9.5°C 47.5°F8.6°C 94% 4.5 mph NW7.2 kmh NW 9.4 mph15.1 kmh 29.66 in1004.4 mb 0.02 in0.5 mm 0.00 in0.0 mm 0.02 in0.5 mm
04:15 AM 49.1°F9.5°C 47.5°F8.6°C 94% 4.0 mph NW6.4 kmh NW 9.4 mph15.1 kmh 29.66 in1004.4 mb 0.02 in0.5 mm 0.00 in0.0 mm 0.02 in0.5 mm
04:10 AM 49.2°F9.6°C 47.6°F8.7°C 94% 4.9 mph NW7.9 kmh NW 11.2 mph18.0 kmh 29.66 in1004.4 mb 0.02 in0.5 mm 0.00 in0.0 mm 0.02 in0.5 mm
04:05 AM 49.6°F9.8°C 48.0°F8.9°C 94% 5.4 mph WNW8.7 kmh WNW 11.2 mph18.0 kmh 29.67 in1004.7 mb 0.02 in0.5 mm 0.00 in0.0 mm 0.02 in0.5 mm
04:00 AM 49.6°F9.8°C 47.7°F8.7°C 93% 4.9 mph W7.9 kmh W 11.2 mph18.0 kmh 29.67 in1004.7 mb 0.02 in0.5 mm 0.00 in0.0 mm 0.02 in0.5 mm
03:55 AM 49.4°F9.7°C 47.5°F8.6°C 93% 4.9 mph W7.9 kmh W 12.5 mph20.1 kmh 29.67 in1004.7 mb 0.02 in0.5 mm 0.00 in0.0 mm 0.02 in0.5 mm
03:50 AM 49.4°F9.7°C 47.5°F8.6°C 93% 4.5 mph NW7.2 kmh NW 12.5 mph20.1 kmh 29.67 in1004.7 mb 0.02 in0.5 mm 0.24 in6.1 mm 0.02 in0.5 mm
03:45 AM 49.2°F9.6°C 47.0°F8.3°C 92% 5.4 mph NW8.7 kmh NW 12.5 mph20.1 kmh 29.66 in1004.4 mb 0.00 in0.0 mm 0.00 in0.0 mm 0.00 in0.0 mm
03:40 AM 49.2°F9.6°C 47.0°F8.3°C 92% 5.8 mph NNW9.3 kmh NNW 17.5 mph28.2 kmh 29.66 in1004.4 mb 0.00 in0.0 mm 0.00 in0.0 mm 0.00 in0.0 mm
03:35 AM 49.4°F9.7°C 47.2°F8.4°C 92% 6.3 mph NNW10.1 kmh NNW 17.5 mph28.2 kmh 29.66 in1004.4 mb 0.00 in0.0 mm 0.00 in0.0 mm 0.00 in0.0 mm
03:30 AM 49.6°F9.8°C 47.4°F8.6°C 92% 5.8 mph NNW9.3 kmh NNW 11.2 mph18.0 kmh 29.66 in1004.4 mb 0.00 in0.0 mm 0.00 in0.0 mm 0.00 in0.0 mm
03:25 AM 49.4°F9.7°C 47.5°F8.6°C 93% 5.4 mph NNW8.7 kmh NNW 10.3 mph16.6 kmh 29.66 in1004.4 mb 0.00 in0.0 mm 0.00 in0.0 mm 0.00 in0.0 mm
03:20 AM 49.4°F9.7°C 47.5°F8.6°C 93% 5.8 mph NNW9.3 kmh NNW 17.9 mph28.8 kmh 29.67 in1004.7 mb 0.00 in0.0 mm 0.00 in0.0 mm 0.00 in0.0 mm
03:15 AM 49.4°F9.7°C 47.5°F8.6°C 93% 6.3 mph NNW10.1 kmh NNW 17.9 mph28.8 kmh 29.67 in1004.7 mb 0.00 in0.0 mm 0.00 in0.0 mm 0.00 in0.0 mm
03:10 AM 49.2°F9.6°C 47.0°F8.3°C 92% 5.8 mph NNW9.3 kmh NNW 28.2 mph45.4 kmh 29.67 in1004.7 mb 0.00 in0.0 mm 0.00 in0.0 mm 0.00 in0.0 mm
03:05 AM 49.4°F9.7°C 47.2°F8.4°C 92% 5.4 mph NW8.7 kmh NW 28.2 mph45.4 kmh 29.67 in1004.7 mb 0.00 in0.0 mm 0.00 in0.0 mm 0.00 in0.0 mm
03:00 AM 49.4°F9.7°C 47.2°F8.4°C 92% 4.9 mph NW7.9 kmh NW 13.0 mph20.9 kmh 29.68 in1005.1 mb 0.00 in0.0 mm 0.00 in0.0 mm 0.00 in0.0 mm
02:55 AM 49.4°F9.7°C 47.5°F8.6°C 93% 4.0 mph NW6.4 kmh NW 8.5 mph13.7 kmh 29.68 in1005.1 mb 0.00 in0.0 mm 0.00 in0.0 mm 0.00 in0.0 mm
02:50 AM 49.6°F9.8°C 47.7°F8.7°C 93% 3.6 mph NNW5.8 kmh NNW 8.1 mph13.0 kmh 29.68 in1005.1 mb 0.00 in0.0 mm 0.00 in0.0 mm 0.00 in0.0 mm
02:45 AM 49.6°F9.8°C 47.7°F8.7°C 93% 3.6 mph NNW5.8 kmh NNW 8.1 mph13.0 kmh 29.68 in1005.1 mb 0.00 in0.0 mm 0.00 in0.0 mm 0.00 in0.0 mm
02:40 AM 50.0°F10.0°C 48.1°F8.9°C 93% 4.0 mph NW6.4 kmh NW 9.0 mph14.5 kmh 29.68 in1005.1 mb 0.00 in0.0 mm 0.00 in0.0 mm 0.00 in0.0 mm
02:35 AM 50.0°F10.0°C 48.1°F8.9°C 93% 4.5 mph NW7.2 kmh NW 9.0 mph14.5 kmh 29.68 in1005.1 mb 0.00 in0.0 mm 0.00 in0.0 mm 0.00 in0.0 mm
02:30 AM 50.1°F10.1°C 48.5°F9.2°C 94% 4.9 mph NW7.9 kmh NW 12.1 mph19.5 kmh 29.68 in1005.1 mb 0.00 in0.0 mm 0.00 in0.0 mm 0.00 in0.0 mm
02:25 AM 50.0°F10.0°C 48.4°F9.1°C 94% 4.9 mph NW7.9 kmh NW 12.1 mph19.5 kmh 29.68 in1005.1 mb 0.00 in0.0 mm 0.00 in0.0 mm 0.00 in0.0 mm
02:20 AM 50.0°F10.0°C 48.4°F9.1°C 94% 4.0 mph NW6.4 kmh NW 9.9 mph15.9 kmh 29.68 in1005.1 mb 0.00 in0.0 mm 0.00 in0.0 mm 0.00 in0.0 mm
02:15 AM 50.0°F10.0°C 48.4°F9.1°C 94% 3.1 mph NW5.0 kmh NW 9.4 mph15.1 kmh 29.68 in1005.1 mb 0.00 in0.0 mm 0.00 in0.0 mm 0.00 in0.0 mm
02:10 AM 49.8°F9.9°C 48.2°F9.0°C 94% 3.1 mph NW5.0 kmh NW 6.3 mph10.1 kmh 29.68 in1005.1 mb 0.00 in0.0 mm 0.00 in0.0 mm 0.00 in0.0 mm
02:05 AM 49.8°F9.9°C 48.2°F9.0°C 94% 3.6 mph NW5.8 kmh NW 8.1 mph13.0 kmh 29.68 in1005.1 mb 0.00 in0.0 mm 0.00 in0.0 mm 0.00 in0.0 mm
02:00 AM 50.0°F10.0°C 48.1°F8.9°C 93% 3.6 mph NW5.8 kmh NW 8.1 mph13.0 kmh 29.68 in1005.1 mb 0.00 in0.0 mm 0.00 in0.0 mm 0.00 in0.0 mm
01:55 AM 49.8°F9.9°C 47.9°F8.8°C 93% 2.7 mph NW4.3 kmh NW 4.9 mph7.9 kmh 29.68 in1005.1 mb 0.00 in0.0 mm 0.00 in0.0 mm 0.00 in0.0 mm
01:50 AM 50.0°F10.0°C 48.1°F8.9°C 93% 2.7 mph NW4.3 kmh NW 6.3 mph10.1 kmh 29.68 in1005.1 mb 0.00 in0.0 mm 0.00 in0.0 mm 0.00 in0.0 mm
01:45 AM 49.8°F9.9°C 47.9°F8.8°C 93% 3.1 mph NW5.0 kmh NW 6.3 mph10.1 kmh 29.68 in1005.1 mb 0.00 in0.0 mm 0.00 in0.0 mm 0.00 in0.0 mm
01:40 AM 49.8°F9.9°C 47.9°F8.8°C 93% 3.1 mph NW5.0 kmh NW 6.3 mph10.1 kmh 29.68 in1005.1 mb 0.00 in0.0 mm 0.00 in0.0 mm 0.00 in0.0 mm
01:35 AM 49.8°F9.9°C 47.9°F8.8°C 93% 3.1 mph NW5.0 kmh NW 6.3 mph10.1 kmh 29.68 in1005.1 mb 0.00 in0.0 mm 0.00 in0.0 mm 0.00 in0.0 mm
01:30 AM 49.6°F9.8°C 47.7°F8.7°C 93% 3.1 mph NW5.0 kmh NW 7.6 mph12.2 kmh 29.68 in1005.1 mb 0.00 in0.0 mm 0.00 in0.0 mm 0.00 in0.0 mm
01:25 AM 49.4°F9.7°C 47.5°F8.6°C 93% 4.0 mph NNW6.4 kmh NNW 8.1 mph13.0 kmh 29.69 in1005.4 mb 0.00 in0.0 mm 0.00 in0.0 mm 0.00 in0.0 mm
01:20 AM 49.2°F9.6°C 47.3°F8.5°C 93% 4.5 mph NNW7.2 kmh NNW 8.5 mph13.7 kmh 29.69 in1005.4 mb 0.00 in0.0 mm 0.00 in0.0 mm 0.00 in0.0 mm
01:15 AM 49.2°F9.6°C 47.3°F8.5°C 93% 4.9 mph NNW7.9 kmh NNW 18.4 mph29.6 kmh 29.69 in1005.4 mb 0.00 in0.0 mm 0.00 in0.0 mm 0.00 in0.0 mm
01:10 AM 49.2°F9.6°C 47.3°F8.5°C 93% 4.9 mph NNW7.9 kmh NNW 18.4 mph29.6 kmh 29.69 in1005.4 mb 0.00 in0.0 mm 0.00 in0.0 mm 0.00 in0.0 mm
01:05 AM 49.4°F9.7°C 47.5°F8.6°C 93% 4.5 mph NNW7.2 kmh NNW 9.9 mph15.9 kmh 29.69 in1005.4 mb 0.00 in0.0 mm 0.00 in0.0 mm 0.00 in0.0 mm
01:00 AM 49.4°F9.7°C 47.5°F8.6°C 93% 4.9 mph NNW7.9 kmh NNW 10.8 mph17.4 kmh 29.69 in1005.4 mb 0.00 in0.0 mm 0.00 in0.0 mm 0.00 in0.0 mm
12:55 AM 49.6°F9.8°C 47.4°F8.6°C 92% 5.4 mph NW8.7 kmh NW 10.8 mph17.4 kmh 29.69 in1005.4 mb 0.00 in0.0 mm 0.00 in0.0 mm 0.00 in0.0 mm
12:50 AM 49.8°F9.9°C 47.6°F8.7°C 92% 5.4 mph NW8.7 kmh NW 10.8 mph17.4 kmh 29.70 in1005.8 mb 0.00 in0.0 mm 0.00 in0.0 mm 0.00 in0.0 mm
12:45 AM 50.0°F10.0°C 47.8°F8.8°C 92% 5.4 mph NW8.7 kmh NW 10.8 mph17.4 kmh 29.70 in1005.8 mb 0.00 in0.0 mm 0.00 in0.0 mm 0.00 in0.0 mm
12:40 AM 50.1°F10.1°C 47.9°F8.8°C 92% 6.3 mph NW10.1 kmh NW 17.5 mph28.2 kmh 29.70 in1005.8 mb 0.00 in0.0 mm 0.00 in0.0 mm 0.00 in0.0 mm
12:35 AM 50.3°F10.2°C 47.8°F8.8°C 91% 6.7 mph NW10.8 kmh NW 30.0 mph48.3 kmh 29.70 in1005.8 mb 0.00 in0.0 mm 0.00 in0.0 mm 0.00 in0.0 mm
12:30 AM 50.3°F10.2°C 47.8°F8.8°C 91% 5.8 mph NW9.3 kmh NW 30.0 mph48.3 kmh 29.70 in1005.8 mb 0.00 in0.0 mm 0.00 in0.0 mm 0.00 in0.0 mm
12:25 AM 50.5°F10.3°C 48.0°F8.9°C 91% 5.8 mph NW9.3 kmh NW 13.0 mph20.9 kmh 29.70 in1005.8 mb 0.00 in0.0 mm 0.00 in0.0 mm 0.00 in0.0 mm
12:20 AM 50.5°F10.3°C 48.0°F8.9°C 91% 5.4 mph NW8.7 kmh NW 13.0 mph20.9 kmh 29.70 in1005.8 mb 0.00 in0.0 mm 0.00 in0.0 mm 0.00 in0.0 mm
12:15 AM 50.5°F10.3°C 48.0°F8.9°C 91% 6.3 mph NW10.1 kmh NW 15.7 mph25.3 kmh 29.70 in1005.8 mb 0.00 in0.0 mm 0.00 in0.0 mm 0.00 in0.0 mm
12:10 AM 50.7°F10.4°C 48.2°F9.0°C 91% 6.7 mph NW10.8 kmh NW 15.7 mph25.3 kmh 29.71 in1006.1 mb 0.00 in0.0 mm 0.00 in0.0 mm 0.00 in0.0 mm
12:05 AM 50.7°F10.4°C 48.2°F9.0°C 91% 6.7 mph NW10.8 kmh NW 14.8 mph23.8 kmh 29.70 in1005.8 mb 0.00 in0.0 mm 0.00 in0.0 mm 0.00 in0.0 mm
12:00 AM 50.7°F10.4°C 48.2°F9.0°C 91% 6.7 mph NW10.8 kmh NW 14.8 mph23.8 kmh 29.70 in1005.8 mb 0.00 in0.0 mm 0.00 in0.0 mm 0.00 in0.0 mm